createdAt,value
2023-05-02T00:00:03.649Z,97816.03
2023-05-02T00:02:34.534Z,97814.45
2023-05-02T00:05:02.801Z,97818.53
2023-05-02T00:07:30.596Z,97812.48
2023-05-02T00:10:00.258Z,97812.39
2023-05-02T00:12:28.742Z,97816.23
2023-05-02T00:14:56.320Z,97813.91
2023-05-02T00:17:24.076Z,97811.84
2023-05-02T00:19:52.095Z,97813.17
2023-05-02T00:22:20.119Z,97815.13
2023-05-02T00:24:47.878Z,97814.94
2023-05-02T00:27:15.688Z,97821.93
2023-05-02T00:29:43.446Z,97824.38
2023-05-02T00:32:11.235Z,97827.91
2023-05-02T00:34:39.151Z,97830.34
2023-05-02T00:37:07.714Z,97829.88
2023-05-02T00:39:35.952Z,97827.98
2023-05-02T00:42:03.949Z,97832.84
2023-05-02T00:44:32.228Z,97829.42
2023-05-02T00:47:01.725Z,97830.29
2023-05-02T00:49:30.563Z,97833.25
2023-05-02T00:51:58.897Z,97833.57
2023-05-02T00:54:26.539Z,97833.86
2023-05-02T00:56:54.516Z,97836.85
2023-05-02T00:59:22.480Z,97834.48
2023-05-02T01:02:10.909Z,97839.34
2023-05-02T01:05:11.385Z,97836.42
2023-05-02T01:08:10.733Z,97840.50
2023-05-02T01:10:50.000Z,97833.59
2023-05-02T01:13:25.769Z,97842.48
2023-05-02T01:15:56.322Z,97843.63
2023-05-02T01:18:28.241Z,97834.84
2023-05-02T01:21:06.420Z,97843.72
2023-05-02T01:24:05.997Z,97840.34
2023-05-02T01:26:58.131Z,97845.55
2023-05-02T01:29:28.012Z,97843.30
2023-05-02T01:31:58.351Z,97848.79
2023-05-02T01:34:28.758Z,97845.44
2023-05-02T01:36:58.791Z,97839.41
2023-05-02T01:39:27.428Z,97841.45
2023-05-02T01:41:58.299Z,97842.11
2023-05-02T01:44:29.020Z,97841.95
2023-05-02T01:46:58.418Z,97834.30
2023-05-02T01:49:29.020Z,97834.92
2023-05-02T01:52:02.744Z,97837.41
2023-05-02T01:54:33.465Z,97832.94
2023-05-02T01:57:03.636Z,97841.02
2023-05-02T01:59:34.318Z,97843.48
2023-05-02T02:02:04.377Z,97847.02
2023-05-02T02:04:35.301Z,97843.08
2023-05-02T02:07:06.960Z,97840.19
2023-05-02T02:09:34.978Z,97848.33
2023-05-02T02:12:26.580Z,97850.52
2023-05-02T02:15:15.230Z,97852.75
2023-05-02T02:17:56.905Z,97843.55
2023-05-02T02:20:27.079Z,97850.54
2023-05-02T02:22:57.793Z,97845.77
2023-05-02T02:25:26.933Z,97849.33
2023-05-02T02:27:55.273Z,97849.63
2023-05-02T02:30:23.124Z,97850.52
2023-05-02T02:32:51.190Z,97859.39
2023-05-02T02:35:20.115Z,97862.34
2023-05-02T02:38:03.504Z,97859.97
2023-05-02T02:40:36.780Z,97863.22
2023-05-02T02:43:18.534Z,97865.69
2023-05-02T02:45:54.364Z,97869.20
2023-05-02T02:49:18.254Z,97872.73
2023-05-02T02:52:06.715Z,97876.77
2023-05-02T02:54:48.835Z,97883.22
2023-05-02T02:57:21.726Z,97882.45
2023-05-02T03:00:10.452Z,97883.00
2023-05-02T03:02:42.043Z,97886.46
2023-05-02T03:05:11.331Z,97887.50
2023-05-02T03:07:39.302Z,97885.64
2023-05-02T03:10:07.914Z,97889.36
2023-05-02T03:12:36.156Z,97887.98
2023-05-02T03:15:12.986Z,97887.41
2023-05-02T03:17:40.870Z,97889.78
2023-05-02T03:20:09.102Z,97892.44
2023-05-02T03:22:36.814Z,97896.12
2023-05-02T03:25:05.745Z,97896.33
2023-05-02T03:27:34.195Z,97900.56
2023-05-02T03:30:03.036Z,97906.38
2023-05-02T03:32:32.346Z,97909.20
2023-05-02T03:35:00.636Z,97908.93
2023-05-02T03:37:30.666Z,97911.98
2023-05-02T03:39:58.738Z,97907.53
2023-05-02T03:42:29.906Z,97914.17
2023-05-02T03:44:58.645Z,97919.66
2023-05-02T03:47:29.309Z,97919.67
2023-05-02T03:49:57.744Z,97921.80
2023-05-02T03:52:26.474Z,97917.25
2023-05-02T03:54:54.583Z,97916.92
2023-05-02T03:57:22.742Z,97919.00
2023-05-02T03:59:51.167Z,97920.59
2023-05-02T04:02:20.914Z,97925.45
2023-05-02T04:04:49.660Z,97920.59
2023-05-02T04:07:19.077Z,97924.65
2023-05-02T04:09:48.922Z,97932.59
2023-05-02T04:12:16.613Z,97925.31
2023-05-02T04:14:46.223Z,97921.61
2023-05-02T04:17:16.433Z,97925.61
2023-05-02T04:19:48.852Z,97929.19
2023-05-02T04:22:17.574Z,97930.28
2023-05-02T04:24:47.361Z,97923.66
2023-05-02T04:27:16.010Z,97928.53
2023-05-02T04:29:50.254Z,97934.33
2023-05-02T04:32:20.198Z,97932.30
2023-05-02T04:34:48.983Z,97934.49
2023-05-02T04:37:17.318Z,97937.70
2023-05-02T04:39:48.125Z,97936.37
2023-05-02T04:42:21.044Z,97927.98
2023-05-02T04:44:58.426Z,97934.02
2023-05-02T04:47:26.564Z,97934.72
2023-05-02T04:49:55.553Z,97933.47
2023-05-02T04:52:23.598Z,97936.95
2023-05-02T04:54:51.818Z,97937.13
2023-05-02T04:57:23.205Z,97941.98
2023-05-02T04:59:53.057Z,97940.77
2023-05-02T05:02:22.863Z,97933.51
2023-05-02T05:04:50.710Z,97931.05
2023-05-02T05:07:20.081Z,97927.23
2023-05-02T05:09:51.226Z,97924.52
2023-05-02T05:12:21.097Z,97930.21
2023-05-02T05:14:50.090Z,97933.87
2023-05-02T05:17:17.966Z,97926.73
2023-05-02T05:19:45.819Z,97931.22
2023-05-02T05:22:15.004Z,97926.16
2023-05-02T05:24:43.291Z,97926.56
2023-05-02T05:27:11.092Z,97934.61
2023-05-02T05:29:38.800Z,97920.66
2023-05-02T05:32:06.598Z,97933.31
2023-05-02T05:34:35.005Z,97932.54
2023-05-02T05:37:02.828Z,97932.41
2023-05-02T05:39:30.594Z,97937.97
2023-05-02T05:42:01.043Z,97933.50
2023-05-02T05:44:29.089Z,97936.72
2023-05-02T05:46:57.304Z,97938.41
2023-05-02T05:49:27.023Z,97937.17
2023-05-02T05:51:56.616Z,97927.58
2023-05-02T05:54:24.572Z,97932.77
2023-05-02T05:56:52.562Z,97927.65
2023-05-02T05:59:20.908Z,97925.78
2023-05-02T06:01:49.121Z,97927.42
2023-05-02T06:04:18.025Z,97927.44
2023-05-02T06:06:47.440Z,97926.98
2023-05-02T06:09:15.381Z,97923.73
2023-05-02T06:11:43.132Z,97924.73
2023-05-02T06:14:10.960Z,97933.42
2023-05-02T06:16:40.675Z,97924.16
2023-05-02T06:19:09.221Z,97926.77
2023-05-02T06:21:37.564Z,97926.14
2023-05-02T06:24:05.951Z,97926.38
2023-05-02T06:26:34.247Z,97921.39
2023-05-02T06:29:02.141Z,97920.29
2023-05-02T06:31:29.630Z,97916.41
2023-05-02T06:33:57.336Z,97917.64
2023-05-02T06:36:25.556Z,97904.53
2023-05-02T06:38:53.239Z,97911.77
2023-05-02T06:41:21.678Z,97907.44
2023-05-02T06:43:49.551Z,97904.66
2023-05-02T06:46:19.463Z,97905.94
2023-05-02T06:48:47.092Z,97902.28
2023-05-02T06:51:15.556Z,97906.30
2023-05-02T06:53:43.371Z,97906.19
2023-05-02T06:56:11.126Z,97902.74
2023-05-02T06:58:38.858Z,97904.53
2023-05-02T07:01:06.501Z,97899.95
2023-05-02T07:03:34.339Z,97904.94
2023-05-02T07:06:01.944Z,97898.78
2023-05-02T07:08:29.890Z,97893.66
2023-05-02T07:10:57.978Z,97888.34
2023-05-02T07:13:25.697Z,97891.63
2023-05-02T07:15:54.132Z,97891.06
2023-05-02T07:18:23.762Z,97889.77
2023-05-02T07:20:54.583Z,97888.96
2023-05-02T07:23:23.940Z,97880.45
2023-05-02T07:25:51.813Z,97883.31
2023-05-02T07:28:19.566Z,97887.16
2023-05-02T07:30:48.054Z,97883.94
2023-05-02T07:33:15.884Z,97883.13
2023-05-02T07:35:43.853Z,97873.97
2023-05-02T07:38:11.727Z,97882.30
2023-05-02T07:40:39.433Z,97879.09
2023-05-02T07:43:08.772Z,97882.83
2023-05-02T07:45:36.798Z,97874.53
2023-05-02T07:48:04.773Z,97874.14
2023-05-02T07:50:32.506Z,97872.09
2023-05-02T07:53:00.335Z,97872.80
2023-05-02T07:55:28.701Z,97879.78
2023-05-02T07:57:56.532Z,97870.55
2023-05-02T08:00:24.570Z,97865.42
2023-05-02T08:02:52.434Z,97866.56
2023-05-02T08:05:20.410Z,97864.02
2023-05-02T08:07:49.414Z,97863.70
2023-05-02T08:10:17.357Z,97865.45
2023-05-02T08:12:45.059Z,97860.83
2023-05-02T08:15:13.570Z,97871.96
2023-05-02T08:17:41.467Z,97859.06
2023-05-02T08:20:09.889Z,97859.46
2023-05-02T08:22:37.801Z,97855.22
2023-05-02T08:25:06.083Z,97855.65
2023-05-02T08:27:34.889Z,97849.47
2023-05-02T08:30:02.995Z,97849.24
2023-05-02T08:32:32.841Z,97844.28
2023-05-02T08:35:02.125Z,97843.05
2023-05-02T08:37:30.783Z,97838.50
2023-05-02T08:40:00.505Z,97839.78
2023-05-02T08:42:31.410Z,97828.34
2023-05-02T08:44:59.115Z,97832.59
2023-05-02T08:47:29.590Z,97829.02
2023-05-02T08:49:58.529Z,97824.06
2023-05-02T08:52:27.378Z,97824.42
2023-05-02T08:54:57.125Z,97825.80
2023-05-02T08:57:25.398Z,97825.16
2023-05-02T08:59:53.350Z,97825.17
2023-05-02T09:02:53.654Z,97831.89
2023-05-02T09:05:24.726Z,97818.48
2023-05-02T09:07:54.207Z,97820.05
2023-05-02T09:10:23.921Z,97813.37
2023-05-02T09:12:51.896Z,97811.15
2023-05-02T09:15:21.054Z,97807.41
2023-05-02T09:17:49.430Z,97802.88
2023-05-02T09:20:17.433Z,97802.80
2023-05-02T09:22:51.005Z,97797.90
2023-05-02T09:25:20.923Z,97804.53
2023-05-02T09:27:55.533Z,97805.78
2023-05-02T09:30:25.708Z,97802.88
2023-05-02T09:32:57.130Z,97801.80
2023-05-02T09:35:27.540Z,97802.17
2023-05-02T09:53:21.664Z,97783.53
2023-05-02T09:56:04.112Z,97782.97
2023-05-02T09:58:31.946Z,97778.02
2023-05-02T10:01:01.851Z,97771.53
2023-05-02T10:03:31.604Z,97772.13
2023-05-02T10:05:59.668Z,97771.59
2023-05-02T10:08:28.911Z,97764.66
2023-05-02T10:10:59.594Z,97756.59
2023-05-02T10:13:29.838Z,97773.53
2023-05-02T10:16:08.376Z,97773.08
2023-05-02T10:18:56.667Z,97777.27
2023-05-02T10:21:27.672Z,97763.02
2023-05-02T10:23:56.090Z,97764.23
2023-05-02T10:26:24.484Z,97759.47
2023-05-02T10:28:52.859Z,97759.47
2023-05-02T10:31:21.126Z,97754.69
2023-05-02T10:33:55.413Z,97756.48
2023-05-02T10:36:23.553Z,97755.83
2023-05-02T10:38:52.674Z,97757.84
2023-05-02T10:41:27.445Z,97748.66
2023-05-02T10:43:55.705Z,97753.94
2023-05-02T10:46:33.404Z,97753.37
2023-05-02T10:49:08.112Z,97748.95
2023-05-02T10:51:40.838Z,97745.95
2023-05-02T10:54:24.072Z,97741.68
2023-05-02T10:57:05.205Z,97737.64
2023-05-02T10:59:40.472Z,97747.41
2023-05-02T11:02:32.444Z,97730.72
2023-05-02T11:05:05.854Z,97742.17
2023-05-02T11:07:37.016Z,97739.23
2023-05-02T11:10:22.286Z,97741.73
2023-05-02T11:12:56.417Z,97751.13
2023-05-02T11:15:32.882Z,97740.71
2023-05-02T11:18:13.238Z,97735.98
2023-05-02T11:20:43.960Z,97740.31
2023-05-02T11:23:24.223Z,97734.17
2023-05-02T11:25:55.304Z,97733.58
2023-05-02T11:28:49.013Z,97736.10
2023-05-02T11:31:35.071Z,97738.89
2023-05-02T11:34:04.248Z,97737.48
2023-05-02T11:36:34.430Z,97722.34
2023-05-02T11:39:05.331Z,97733.62
2023-05-02T11:41:44.863Z,97728.53
2023-05-02T11:44:22.004Z,97730.87
2023-05-02T11:46:56.179Z,97725.61
2023-05-02T11:49:25.025Z,97725.92
2023-05-02T11:52:00.910Z,97719.64
2023-05-02T11:54:31.169Z,97720.03
2023-05-02T11:57:07.833Z,97708.43
2023-05-02T12:00:02.120Z,97728.50
2023-05-02T12:02:40.627Z,97711.31
2023-05-02T12:05:13.096Z,97717.53
2023-05-02T12:07:44.707Z,97715.98
2023-05-02T12:10:14.564Z,97717.71
2023-05-02T12:12:44.820Z,97708.97
2023-05-02T12:15:13.068Z,97714.82
2023-05-02T12:17:45.016Z,97713.02
2023-05-02T12:20:17.000Z,97710.16
2023-05-02T12:22:48.098Z,97700.02
2023-05-02T12:25:18.338Z,97702.45
2023-05-02T12:28:04.238Z,97698.19
2023-05-02T12:30:34.190Z,97698.84
2023-05-02T12:33:02.869Z,97699.25
2023-05-02T12:35:31.372Z,97694.34
2023-05-02T12:38:16.795Z,97687.20
2023-05-02T12:40:53.688Z,97678.55
2023-05-02T12:43:21.642Z,97675.03
2023-05-02T12:45:52.382Z,97678.00
2023-05-02T12:48:27.883Z,97686.53
2023-05-02T12:50:55.819Z,97675.53
2023-05-02T12:53:43.850Z,97669.03
2023-05-02T12:56:12.857Z,97669.47
2023-05-02T12:58:48.854Z,97654.74
2023-05-02T13:01:16.892Z,97658.38
2023-05-02T13:03:44.590Z,97655.17
2023-05-02T13:06:12.573Z,97651.98
2023-05-02T13:08:40.608Z,97652.70
2023-05-02T13:11:08.623Z,97655.28
2023-05-02T13:13:36.124Z,97652.59
2023-05-02T13:16:04.554Z,97654.63
2023-05-02T13:18:32.378Z,97651.81
2023-05-02T13:21:00.192Z,97647.19
2023-05-02T13:23:28.031Z,97651.27
2023-05-02T13:25:56.807Z,97655.20
2023-05-02T13:28:26.945Z,97649.29
2023-05-02T13:30:55.099Z,97643.64
2023-05-02T13:33:24.181Z,97644.38
2023-05-02T13:35:54.012Z,97650.05
2023-05-02T13:38:23.377Z,97645.25
2023-05-02T13:40:52.541Z,97644.31
2023-05-02T13:43:28.213Z,97639.93
2023-05-02T13:45:57.057Z,97635.35
2023-05-02T13:48:25.055Z,97630.95
2023-05-02T13:50:58.729Z,97629.77
2023-05-02T13:53:26.550Z,97622.67
2023-05-02T13:55:55.837Z,97623.87
2023-05-02T13:58:23.529Z,97627.07
2023-05-02T14:00:51.481Z,97625.77
2023-05-02T14:03:19.645Z,97624.31
2023-05-02T14:05:47.317Z,97628.39
2023-05-02T14:08:16.938Z,97626.59
2023-05-02T14:10:46.621Z,97623.36
2023-05-02T14:13:14.702Z,97623.09
2023-05-02T14:15:42.704Z,97618.01
2023-05-02T14:18:10.413Z,97619.03
2023-05-02T14:20:38.086Z,97615.30
2023-05-02T14:23:07.575Z,97621.47
2023-05-02T14:25:37.219Z,97615.17
2023-05-02T14:28:05.447Z,97620.87
2023-05-02T14:30:33.608Z,97618.88
2023-05-02T14:33:01.837Z,97618.30
2023-05-02T14:35:29.367Z,97620.95
2023-05-02T14:37:57.610Z,97611.89
2023-05-02T14:40:28.555Z,97611.89
2023-05-02T14:42:56.288Z,97616.92
2023-05-02T14:45:24.076Z,97615.37
2023-05-02T14:47:51.868Z,97602.53
2023-05-02T14:50:19.625Z,97613.31
2023-05-02T14:52:47.568Z,97613.31
2023-05-02T14:55:15.978Z,97605.19
2023-05-02T14:57:43.547Z,97608.58
2023-05-02T15:00:12.281Z,97609.35
2023-05-02T15:02:43.835Z,97607.12
2023-05-02T15:05:12.038Z,97603.69
2023-05-02T15:07:40.326Z,97607.00
2023-05-02T15:10:08.724Z,97601.45
2023-05-02T15:12:39.294Z,97594.97
2023-05-02T15:15:09.408Z,97601.02
2023-05-02T15:17:37.482Z,97602.02
2023-05-02T15:20:07.698Z,97601.66
2023-05-02T15:22:35.556Z,97598.39
2023-05-02T15:25:05.371Z,97597.63
2023-05-02T15:27:33.341Z,97600.20
2023-05-02T15:30:02.598Z,97591.56
2023-05-02T15:32:33.327Z,97587.88
2023-05-02T15:35:01.076Z,97587.32
2023-05-02T15:37:31.869Z,97587.95
2023-05-02T15:40:00.131Z,97591.77
2023-05-02T15:42:28.267Z,97585.80
2023-05-02T15:44:56.069Z,97585.90
2023-05-02T15:47:25.742Z,97590.48
2023-05-02T15:49:54.605Z,97589.52
2023-05-02T15:52:22.461Z,97584.28
2023-05-02T15:54:54.905Z,97588.04
2023-05-02T15:57:23.020Z,97582.16
2023-05-02T15:59:51.262Z,97576.25
2023-05-02T16:02:31.716Z,97582.55
2023-05-02T16:08:15.017Z,97590.22
2023-05-02T16:10:42.980Z,97582.06
2023-05-02T16:13:11.038Z,97586.00
2023-05-02T16:15:39.357Z,97581.34
2023-05-02T16:18:07.216Z,97577.66
2023-05-02T16:20:37.541Z,97576.91
2023-05-02T16:23:09.869Z,97578.72
2023-05-02T16:25:42.484Z,97577.39
2023-05-02T16:49:10.572Z,97570.44
2023-05-02T16:51:41.788Z,97576.91
2023-05-02T16:54:13.184Z,97568.12
2023-05-02T16:56:43.787Z,97582.82
2023-05-02T16:59:17.879Z,97578.52
2023-05-02T17:01:49.476Z,97576.78
2023-05-02T17:04:17.986Z,97577.76
2023-05-02T17:09:43.550Z,97575.20
2023-05-02T17:12:21.317Z,97579.31
2023-05-02T17:18:02.898Z,97577.58
2023-05-02T17:20:32.238Z,97574.81
2023-05-02T17:23:02.125Z,97577.34
2023-05-02T17:25:39.010Z,97577.52
2023-05-02T17:31:43.829Z,97587.77
2023-05-02T17:34:21.672Z,97583.81
2023-05-02T17:36:56.396Z,97585.05
2023-05-02T17:42:27.206Z,97592.27
2023-05-02T17:45:11.737Z,97592.16
2023-05-02T17:47:40.280Z,97596.76
2023-05-02T17:50:11.400Z,97597.82
2023-05-02T17:52:42.463Z,97597.96
2023-05-02T17:55:10.450Z,97604.69
2023-05-02T17:57:38.833Z,97594.63
2023-05-02T18:00:08.602Z,97604.30
2023-05-02T18:02:39.522Z,97608.45
2023-05-02T18:05:10.993Z,97611.66
2023-05-02T18:07:39.436Z,97618.58
2023-05-02T18:10:09.960Z,97623.48
2023-05-02T18:12:42.858Z,97630.33
2023-05-02T18:15:12.056Z,97632.48
2023-05-02T18:17:48.192Z,97642.69
2023-05-02T18:20:26.585Z,97651.70
2023-05-02T18:23:01.668Z,97655.78
2023-05-02T18:25:35.984Z,97656.13
2023-05-02T18:28:13.473Z,97658.63
2023-05-02T18:30:50.130Z,97674.58
2023-05-02T18:33:39.641Z,97676.11
2023-05-02T18:36:08.108Z,97681.95
2023-05-02T18:38:37.097Z,97684.88
2023-05-02T18:41:51.374Z,97691.28
2023-05-02T18:44:32.323Z,97697.74
2023-05-02T18:47:06.674Z,97697.78
2023-05-02T18:49:46.007Z,97701.38
2023-05-02T18:52:36.041Z,97708.22
2023-05-02T18:55:08.432Z,97708.36
2023-05-02T18:57:44.106Z,97712.20
2023-05-02T19:00:15.148Z,97712.97
2023-05-02T19:02:48.043Z,97720.81
2023-05-02T19:05:18.173Z,97725.88
2023-05-02T19:07:46.387Z,97726.90
2023-05-02T19:10:51.225Z,97721.47
2023-05-02T19:13:42.945Z,97727.89
2023-05-02T19:16:13.685Z,97733.92
2023-05-02T19:18:48.670Z,97737.86
2023-05-02T19:21:17.011Z,97716.92
2023-05-02T19:23:55.630Z,97743.98
2023-05-02T19:26:32.477Z,97757.00
2023-05-02T19:29:29.125Z,97744.27
2023-05-02T19:32:06.507Z,97762.59
2023-05-02T19:34:44.020Z,97750.06
2023-05-02T19:37:12.260Z,97776.17
2023-05-02T19:40:23.520Z,97776.51
2023-05-02T19:46:06.865Z,97794.67
2023-05-02T19:48:44.898Z,97795.52
2023-05-02T19:51:26.085Z,97796.25
2023-05-02T19:54:01.020Z,97778.05
2023-05-02T19:56:52.552Z,97798.23
2023-05-02T19:59:44.213Z,97779.45
2023-05-02T20:02:14.832Z,97804.50
2023-05-02T20:04:44.662Z,97793.97
2023-05-02T20:07:43.375Z,97811.42
2023-05-02T20:10:23.703Z,97807.84
2023-05-02T20:12:55.832Z,97816.48
2023-05-02T20:15:26.434Z,97815.62
2023-05-02T20:17:57.993Z,97821.87
2023-05-02T20:20:28.302Z,97828.00
2023-05-02T20:22:59.328Z,97828.16
2023-05-02T20:25:42.646Z,97829.64
2023-05-02T20:28:22.653Z,97835.98
2023-05-02T20:31:04.399Z,97834.54
2023-05-02T20:33:44.718Z,97836.84
2023-05-02T20:42:45.711Z,97843.42
2023-05-02T20:45:33.576Z,97844.03
2023-05-02T20:48:04.557Z,97850.42
2023-05-02T20:50:37.134Z,97845.66
2023-05-02T20:53:05.717Z,97852.47
2023-05-02T20:55:35.638Z,97855.68
2023-05-02T20:58:05.831Z,97855.28
2023-05-02T21:00:36.115Z,97860.77
2023-05-02T21:03:06.503Z,97854.38
2023-05-02T21:05:41.770Z,97856.12
2023-05-02T21:08:10.256Z,97858.06
2023-05-02T21:10:39.080Z,97854.58
2023-05-02T21:13:08.468Z,97855.75
2023-05-02T21:15:37.718Z,97862.74
2023-05-02T21:18:06.900Z,97862.06
2023-05-02T21:20:35.607Z,97867.02
2023-05-02T21:23:03.680Z,97871.20
2023-05-02T21:25:34.801Z,97874.69
2023-05-02T21:28:09.902Z,97876.16
2023-05-02T21:30:36.508Z,97874.45
2023-05-02T21:33:04.863Z,97871.97
2023-05-02T21:35:34.063Z,97877.38
2023-05-02T21:38:05.958Z,97877.48
2023-05-02T21:40:45.633Z,97871.84
2023-05-02T21:43:18.402Z,97867.55
2023-05-02T21:45:55.362Z,97874.84
2023-05-02T21:48:27.664Z,97871.55
2023-05-02T21:50:58.950Z,97875.27
2023-05-02T21:53:27.290Z,97870.31
2023-05-02T21:55:55.963Z,97873.89
2023-05-02T21:58:24.350Z,97878.61
2023-05-02T22:00:52.570Z,97859.19
2023-05-02T22:03:22.934Z,97884.90
2023-05-02T22:05:53.381Z,97885.44
2023-05-02T22:08:23.569Z,97888.58
2023-05-02T22:10:52.645Z,97894.17
2023-05-02T22:13:20.766Z,97889.39
2023-05-02T22:15:50.300Z,97888.66
2023-05-02T22:18:18.511Z,97894.01
2023-05-02T22:20:47.744Z,97893.70
2023-05-02T22:23:16.652Z,97892.16
2023-05-02T22:25:46.092Z,97892.55
2023-05-02T22:28:14.030Z,97900.93
2023-05-02T22:30:42.696Z,97898.30
2023-05-02T22:33:11.526Z,97903.16
2023-05-02T22:35:39.897Z,97899.16
2023-05-02T22:38:10.672Z,97895.84
2023-05-02T22:40:38.858Z,97901.03
2023-05-02T22:43:07.567Z,97907.45
2023-05-02T22:45:36.799Z,97902.71
2023-05-02T22:48:07.864Z,97905.64
2023-05-02T22:50:35.821Z,97906.13
2023-05-02T22:53:04.141Z,97903.70
2023-05-02T22:55:32.585Z,97908.22
2023-05-02T22:58:00.483Z,97910.05
2023-05-02T23:00:30.429Z,97917.61
2023-05-02T23:03:00.008Z,97918.41
2023-05-02T23:05:29.425Z,97922.59
2023-05-02T23:07:57.650Z,97915.94
2023-05-02T23:10:25.522Z,97925.70
2023-05-02T23:12:53.406Z,97928.80
2023-05-02T23:15:20.928Z,97923.70
2023-05-02T23:17:49.084Z,97926.23
2023-05-02T23:20:18.802Z,97923.78
2023-05-02T23:22:46.766Z,97921.10
2023-05-02T23:25:15.273Z,97921.08
2023-05-02T23:27:43.372Z,97921.80
2023-05-02T23:30:12.080Z,97920.52
2023-05-02T23:32:40.310Z,97926.77
2023-05-02T23:35:10.647Z,97925.52
2023-05-02T23:37:40.024Z,97928.04
2023-05-02T23:40:12.960Z,97928.11
2023-05-02T23:42:42.277Z,97929.84
2023-05-02T23:45:12.969Z,97932.67
2023-05-02T23:47:41.257Z,97930.53
2023-05-02T23:50:12.984Z,97927.80
2023-05-02T23:52:42.128Z,97926.73
2023-05-02T23:55:13.829Z,97923.55
2023-05-02T23:57:42.821Z,97931.98
